createdAt,value
2024-01-25T00:00:08.422Z,4.13
2024-01-25T00:02:34.878Z,3.67
2024-01-25T00:05:01.582Z,4.20
2024-01-25T00:07:28.237Z,4.53
2024-01-25T00:09:54.738Z,5.30
2024-01-25T00:12:21.194Z,4.20
2024-01-25T00:14:47.553Z,5.18
2024-01-25T00:17:13.953Z,4.53
2024-01-25T00:19:42.344Z,4.25
2024-01-25T00:22:08.931Z,4.45
2024-01-25T00:24:35.563Z,3.67
2024-01-25T00:27:02.142Z,5.00
2024-01-25T00:29:28.571Z,4.57
2024-01-25T00:31:55.126Z,3.88
2024-01-25T00:34:21.770Z,4.25
2024-01-25T00:36:48.446Z,4.07
2024-01-25T00:39:15.064Z,5.28
2024-01-25T00:41:43.513Z,5.25
2024-01-25T00:44:10.120Z,4.47
2024-01-25T00:46:36.655Z,4.57
2024-01-25T00:49:03.306Z,4.75
2024-01-25T00:51:30.020Z,4.72
2024-01-25T00:53:56.591Z,4.85
2024-01-25T00:56:23.407Z,4.43
2024-01-25T00:58:50.042Z,4.82
2024-01-25T01:01:16.826Z,5.18
2024-01-25T01:03:43.646Z,4.97
2024-01-25T01:06:10.506Z,3.88
2024-01-25T01:08:37.243Z,5.75
2024-01-25T01:11:03.830Z,4.35
2024-01-25T01:13:30.287Z,4.88
2024-01-25T01:15:56.760Z,5.18
2024-01-25T01:18:23.421Z,4.85
2024-01-25T01:20:49.870Z,4.20
2024-01-25T01:23:16.410Z,3.88
2024-01-25T01:25:42.828Z,4.65
2024-01-25T01:28:09.240Z,6.10
2024-01-25T01:30:35.795Z,4.43
2024-01-25T01:33:02.443Z,5.55
2024-01-25T01:35:28.976Z,4.45
2024-01-25T01:37:55.439Z,5.22
2024-01-25T01:40:21.884Z,5.38
2024-01-25T01:42:48.324Z,4.05
2024-01-25T01:45:14.936Z,5.03
2024-01-25T01:47:42.206Z,5.32
2024-01-25T01:50:10.138Z,5.82
2024-01-25T01:52:37.367Z,4.93
2024-01-25T01:55:04.012Z,5.50
2024-01-25T01:57:30.525Z,5.95
2024-01-25T01:59:58.222Z,5.75
2024-01-25T02:02:25.145Z,5.15
2024-01-25T02:04:51.881Z,4.47
2024-01-25T02:07:18.420Z,6.30
2024-01-25T02:09:44.843Z,5.43
2024-01-25T02:12:11.416Z,5.82
2024-01-25T02:14:37.915Z,4.88
2024-01-25T02:17:04.535Z,4.75
2024-01-25T02:19:31.076Z,4.60
2024-01-25T02:21:58.365Z,6.20
2024-01-25T02:24:25.187Z,4.57
2024-01-25T02:26:51.720Z,5.78
2024-01-25T02:29:18.951Z,4.32
2024-01-25T02:31:45.409Z,4.05
2024-01-25T02:34:12.046Z,5.60
2024-01-25T02:36:38.672Z,5.35
2024-01-25T02:39:05.874Z,5.35
2024-01-25T02:41:32.702Z,5.35
2024-01-25T02:43:59.200Z,5.78
2024-01-25T02:46:25.707Z,3.22
2024-01-25T02:48:52.333Z,3.70
2024-01-25T02:51:19.055Z,5.20
2024-01-25T02:53:45.413Z,4.93
2024-01-25T02:56:11.834Z,5.65
2024-01-25T02:58:38.248Z,6.22
2024-01-25T03:01:04.901Z,4.72
2024-01-25T03:03:31.436Z,4.88
2024-01-25T03:05:57.968Z,4.10
2024-01-25T03:08:24.438Z,6.32
2024-01-25T03:10:51.130Z,3.95
2024-01-25T03:13:17.776Z,4.80
2024-01-25T03:15:45.170Z,5.80
2024-01-25T03:18:12.432Z,5.40
2024-01-25T03:20:38.988Z,4.65
2024-01-25T03:23:05.462Z,4.65
2024-01-25T03:25:32.773Z,5.60
2024-01-25T03:27:59.301Z,4.95
2024-01-25T03:30:25.702Z,4.75
2024-01-25T03:32:52.126Z,6.20
2024-01-25T03:35:18.795Z,4.38
2024-01-25T03:37:45.274Z,6.80
2024-01-25T03:40:11.781Z,4.78
2024-01-25T03:42:38.300Z,4.15
2024-01-25T03:45:04.921Z,4.30
2024-01-25T03:47:31.400Z,5.40
2024-01-25T03:49:58.021Z,4.78
2024-01-25T03:52:24.919Z,5.13
2024-01-25T03:54:51.322Z,4.03
2024-01-25T03:57:17.785Z,5.05
2024-01-25T03:59:44.223Z,6.75
2024-01-25T04:02:12.229Z,3.75
2024-01-25T04:04:38.845Z,5.25
2024-01-25T04:07:05.463Z,4.25
2024-01-25T04:09:31.922Z,4.43
2024-01-25T04:11:58.615Z,4.95
2024-01-25T04:14:25.004Z,8.13
2024-01-25T04:16:51.414Z,4.70
2024-01-25T04:19:17.916Z,5.85
2024-01-25T04:21:44.436Z,4.72
2024-01-25T04:24:11.060Z,6.47
2024-01-25T04:26:37.399Z,5.07
2024-01-25T04:29:03.806Z,5.10
2024-01-25T04:31:30.298Z,4.63
2024-01-25T04:33:56.888Z,5.70
2024-01-25T04:36:23.486Z,4.75
2024-01-25T04:38:49.872Z,5.78
2024-01-25T04:41:16.435Z,5.25
2024-01-25T04:43:42.874Z,4.05
2024-01-25T04:46:10.149Z,4.35
2024-01-25T04:48:36.919Z,4.15
2024-01-25T04:51:03.502Z,5.32
2024-01-25T04:53:29.930Z,4.85
2024-01-25T04:55:56.651Z,4.32
2024-01-25T04:58:23.745Z,4.20
2024-01-25T05:00:51.610Z,5.10
2024-01-25T05:03:18.410Z,5.28
2024-01-25T05:05:44.892Z,4.13
2024-01-25T05:08:11.370Z,7.55
2024-01-25T05:10:37.864Z,6.10
2024-01-25T05:13:04.474Z,4.57
2024-01-25T05:15:31.086Z,4.88
2024-01-25T05:17:57.770Z,5.43
2024-01-25T05:20:24.357Z,4.80
2024-01-25T05:22:50.869Z,4.88
2024-01-25T05:25:18.148Z,4.55
2024-01-25T05:27:44.704Z,6.43
2024-01-25T05:30:11.418Z,5.85
2024-01-25T05:32:38.154Z,4.63
2024-01-25T05:35:05.891Z,5.03
2024-01-25T05:37:32.444Z,4.35
2024-01-25T05:39:59.022Z,6.22
2024-01-25T05:42:25.657Z,6.32
2024-01-25T05:44:52.201Z,4.05
2024-01-25T05:47:19.081Z,6.25
2024-01-25T05:49:45.883Z,5.45
2024-01-25T05:52:12.390Z,6.10
2024-01-25T05:54:38.956Z,6.80
2024-01-25T05:57:05.519Z,5.35
2024-01-25T05:59:31.937Z,6.10
2024-01-25T06:01:58.425Z,5.55
2024-01-25T06:04:24.966Z,4.95
2024-01-25T06:06:51.643Z,5.28
2024-01-25T06:09:21.245Z,6.07
2024-01-25T06:11:47.862Z,4.30
2024-01-25T06:14:14.313Z,5.00
2024-01-25T06:16:41.945Z,5.43
2024-01-25T06:19:09.125Z,5.10
2024-01-25T06:21:36.755Z,6.03
2024-01-25T06:24:03.550Z,6.20
2024-01-25T06:26:29.969Z,5.35
2024-01-25T06:28:56.402Z,6.00
2024-01-25T06:31:22.957Z,6.22
2024-01-25T06:33:51.688Z,4.90
2024-01-25T06:36:18.808Z,5.85
2024-01-25T06:38:45.284Z,5.68
2024-01-25T06:41:11.772Z,7.38
2024-01-25T06:43:38.227Z,5.88
2024-01-25T06:46:04.683Z,6.25
2024-01-25T06:48:31.365Z,6.30
2024-01-25T06:50:58.054Z,5.28
2024-01-25T06:53:24.450Z,5.28
2024-01-25T06:55:50.881Z,5.50
2024-01-25T06:58:17.371Z,5.80
2024-01-25T07:00:46.191Z,5.00
2024-01-25T07:03:13.836Z,6.25
2024-01-25T07:05:40.830Z,4.90
2024-01-25T07:08:09.928Z,5.03
2024-01-25T07:10:36.364Z,6.50
2024-01-25T07:13:02.975Z,5.47
2024-01-25T07:15:29.717Z,6.78
2024-01-25T07:17:56.266Z,5.72
2024-01-25T07:20:24.312Z,6.38
2024-01-25T07:22:51.174Z,6.13
2024-01-25T07:25:17.663Z,5.55
2024-01-25T07:27:47.851Z,6.95
2024-01-25T07:30:14.723Z,6.55
2024-01-25T07:32:43.478Z,6.82
2024-01-25T07:35:13.410Z,5.00
2024-01-25T07:37:40.451Z,6.95
2024-01-25T07:40:07.818Z,6.90
2024-01-25T07:42:34.742Z,6.38
2024-01-25T07:45:01.252Z,7.00
2024-01-25T07:47:27.861Z,7.97
2024-01-25T07:49:54.363Z,7.80
2024-01-25T07:52:21.122Z,7.03
2024-01-25T07:54:47.764Z,7.22
2024-01-25T07:57:14.240Z,7.90
2024-01-25T07:59:40.694Z,6.03
2024-01-25T08:02:07.414Z,7.60
2024-01-25T08:04:34.004Z,7.25
2024-01-25T08:07:00.537Z,7.18
2024-01-25T08:09:27.013Z,6.10
2024-01-25T08:11:53.440Z,8.02
2024-01-25T08:14:20.344Z,6.82
2024-01-25T08:16:47.168Z,8.02
2024-01-25T08:19:13.805Z,7.07
2024-01-25T08:21:40.369Z,6.47
2024-01-25T08:24:06.780Z,7.20
2024-01-25T08:26:33.240Z,7.45
2024-01-25T08:28:59.656Z,7.55
2024-01-25T08:31:26.137Z,8.75
2024-01-25T08:33:52.766Z,7.82
2024-01-25T08:36:22.080Z,10.55
2024-01-25T08:38:48.683Z,9.43
2024-01-25T08:41:16.729Z,9.48
2024-01-25T08:43:43.416Z,10.65
2024-01-25T08:46:09.992Z,11.40
2024-01-25T08:48:36.724Z,13.48
2024-01-25T08:51:03.384Z,12.75
2024-01-25T08:53:29.847Z,9.10
2024-01-25T08:55:56.370Z,11.65
2024-01-25T08:58:23.374Z,10.82
2024-01-25T09:00:50.059Z,10.07
2024-01-25T09:03:17.078Z,9.85
2024-01-25T09:05:46.294Z,9.70
2024-01-25T09:08:13.921Z,9.02
2024-01-25T09:10:41.237Z,11.20
2024-01-25T09:13:07.775Z,9.30
2024-01-25T09:15:34.391Z,7.78
2024-01-25T09:18:00.932Z,8.93
2024-01-25T09:20:27.538Z,6.95
2024-01-25T09:22:56.702Z,8.20
2024-01-25T09:25:23.303Z,6.88
2024-01-25T09:27:49.776Z,7.10
2024-01-25T09:30:17.356Z,6.65
2024-01-25T09:32:43.909Z,6.85
2024-01-25T09:35:10.849Z,6.68
2024-01-25T09:37:37.409Z,7.45
2024-01-25T09:40:05.176Z,6.93
2024-01-25T09:42:32.334Z,6.82
2024-01-25T09:44:58.957Z,6.80
2024-01-25T09:47:25.441Z,6.07
2024-01-25T09:49:52.361Z,6.70
2024-01-25T09:52:20.655Z,6.28
2024-01-25T09:54:47.226Z,5.53
2024-01-25T09:57:15.657Z,6.60
2024-01-25T09:59:42.598Z,5.40
2024-01-25T10:02:09.902Z,5.55
2024-01-25T10:04:36.555Z,6.47
2024-01-25T10:07:03.133Z,5.65
2024-01-25T10:09:29.521Z,5.60
2024-01-25T10:12:10.215Z,5.50
2024-01-25T10:14:42.434Z,5.00
2024-01-25T10:17:08.863Z,6.53
2024-01-25T10:19:35.740Z,7.28
2024-01-25T10:22:05.404Z,6.03
2024-01-25T10:24:31.961Z,6.53
2024-01-25T10:26:58.418Z,6.97
2024-01-25T10:29:26.765Z,6.07
2024-01-25T10:31:53.252Z,7.50
2024-01-25T10:34:21.315Z,6.82
2024-01-25T10:36:47.989Z,5.63
2024-01-25T10:39:15.718Z,4.30
2024-01-25T10:41:43.128Z,5.80
2024-01-25T10:44:09.690Z,5.57
2024-01-25T10:46:38.006Z,5.50
2024-01-25T10:49:04.609Z,6.03
2024-01-25T10:51:31.765Z,5.13
2024-01-25T10:53:59.473Z,5.65
2024-01-25T10:56:26.101Z,7.15
2024-01-25T10:58:52.597Z,6.20
2024-01-25T11:01:19.283Z,5.78
2024-01-25T11:03:49.254Z,6.47
2024-01-25T11:06:16.404Z,6.10
2024-01-25T11:08:43.336Z,6.63
2024-01-25T11:11:11.940Z,5.80
2024-01-25T11:13:42.055Z,5.75
2024-01-25T11:16:15.818Z,4.90
2024-01-25T11:19:11.811Z,5.18
2024-01-25T11:21:48.433Z,4.65
2024-01-25T11:24:20.896Z,5.18
2024-01-25T11:26:47.560Z,5.15
2024-01-25T11:29:17.741Z,5.30
2024-01-25T11:31:48.013Z,5.20
2024-01-25T11:34:16.474Z,5.55
2024-01-25T11:36:44.095Z,7.28
2024-01-25T11:39:10.923Z,5.90
2024-01-25T11:41:37.598Z,5.20
2024-01-25T11:44:06.968Z,6.35
2024-01-25T11:46:37.828Z,5.10
2024-01-25T11:49:05.095Z,6.80
2024-01-25T11:51:31.639Z,6.13
2024-01-25T11:53:58.401Z,6.45
2024-01-25T11:56:27.701Z,5.72
2024-01-25T11:58:54.605Z,6.50
2024-01-25T12:01:21.494Z,6.95
2024-01-25T12:03:48.379Z,5.47
2024-01-25T12:06:15.164Z,6.72
2024-01-25T12:08:41.686Z,5.85
2024-01-25T12:11:09.292Z,5.50
2024-01-25T12:13:42.634Z,6.63
2024-01-25T12:16:12.546Z,5.32
2024-01-25T12:18:39.799Z,5.30
2024-01-25T12:21:06.762Z,6.28
2024-01-25T12:23:37.350Z,5.85
2024-01-25T12:26:07.601Z,5.10
2024-01-25T12:28:34.454Z,6.78
2024-01-25T12:31:01.436Z,6.93
2024-01-25T12:33:29.304Z,7.53
2024-01-25T12:35:56.490Z,7.30
2024-01-25T12:38:23.714Z,5.63
2024-01-25T12:40:50.346Z,6.50
2024-01-25T12:43:17.144Z,5.93
2024-01-25T12:45:43.973Z,7.03
2024-01-25T12:48:10.524Z,6.05
2024-01-25T12:50:37.066Z,5.93
2024-01-25T12:53:03.715Z,6.65
2024-01-25T12:55:30.648Z,6.53
2024-01-25T12:58:00.356Z,7.13
2024-01-25T13:00:27.151Z,6.80
2024-01-25T13:02:55.424Z,6.28
2024-01-25T13:05:22.027Z,7.72
2024-01-25T13:07:48.608Z,5.78
2024-01-25T13:10:17.058Z,7.95
2024-01-25T13:12:44.068Z,6.00
2024-01-25T13:15:10.849Z,6.53
2024-01-25T13:17:37.628Z,7.28
2024-01-25T13:20:06.642Z,7.35
2024-01-25T13:22:34.136Z,7.13
2024-01-25T13:25:01.403Z,7.63
2024-01-25T13:27:28.405Z,6.75
2024-01-25T13:29:55.095Z,7.47
2024-01-25T13:32:22.147Z,7.38
2024-01-25T13:34:48.567Z,7.45
2024-01-25T13:37:15.070Z,8.13
2024-01-25T13:39:41.477Z,8.35
2024-01-25T13:42:07.941Z,6.50
2024-01-25T13:44:34.307Z,9.55
2024-01-25T13:47:00.755Z,7.65
2024-01-25T13:49:27.260Z,7.50
2024-01-25T13:51:53.690Z,7.95
2024-01-25T13:54:20.180Z,8.45
2024-01-25T13:56:46.613Z,8.15
2024-01-25T13:59:13.093Z,8.63
2024-01-25T14:01:39.544Z,8.30
2024-01-25T14:04:06.712Z,8.07
2024-01-25T14:06:33.327Z,7.82
2024-01-25T14:08:59.833Z,7.85
2024-01-25T14:11:27.518Z,8.48
2024-01-25T14:13:54.149Z,7.85
2024-01-25T14:16:22.778Z,9.43
2024-01-25T14:18:50.657Z,8.05
2024-01-25T14:21:21.951Z,8.52
2024-01-25T14:23:48.619Z,7.95
2024-01-25T14:26:15.204Z,9.07
2024-01-25T14:28:41.778Z,10.68
2024-01-25T14:31:08.872Z,8.70
2024-01-25T14:33:36.252Z,9.52
2024-01-25T14:36:04.901Z,9.15
2024-01-25T14:38:31.549Z,8.02
2024-01-25T14:41:00.552Z,10.25
2024-01-25T14:43:28.935Z,9.82
2024-01-25T14:45:55.355Z,8.43
2024-01-25T14:48:21.930Z,9.40
2024-01-25T14:50:48.396Z,9.60
2024-01-25T14:53:14.905Z,10.68
2024-01-25T14:55:41.572Z,9.73
2024-01-25T14:58:09.569Z,9.13
2024-01-25T15:00:36.063Z,10.65
2024-01-25T15:03:02.688Z,9.35
2024-01-25T15:05:29.133Z,10.95
2024-01-25T15:07:55.553Z,10.73
2024-01-25T15:10:22.010Z,9.80
2024-01-25T15:12:49.643Z,11.23
2024-01-25T15:15:16.131Z,11.10
2024-01-25T15:17:42.627Z,11.38
2024-01-25T15:20:09.381Z,10.32
2024-01-25T15:22:35.891Z,11.57
2024-01-25T15:25:02.392Z,10.35
2024-01-25T15:27:28.892Z,11.35
2024-01-25T15:29:55.377Z,10.65
2024-01-25T15:32:21.853Z,11.35
2024-01-25T15:34:49.028Z,13.00
2024-01-25T15:37:15.521Z,11.85
2024-01-25T15:39:42.008Z,10.77
2024-01-25T15:42:08.496Z,11.48
2024-01-25T15:44:34.846Z,12.70
2024-01-25T15:47:01.398Z,11.75
2024-01-25T15:49:28.246Z,13.73
2024-01-25T15:51:54.837Z,15.50
2024-01-25T15:54:21.361Z,14.55
2024-01-25T15:56:48.339Z,13.57
2024-01-25T15:59:14.789Z,13.77
2024-01-25T16:01:41.221Z,13.50
2024-01-25T16:04:07.698Z,13.70
2024-01-25T16:06:34.179Z,14.15
2024-01-25T16:09:03.587Z,13.45
2024-01-25T16:11:29.974Z,15.50
2024-01-25T16:13:56.561Z,14.60
2024-01-25T16:16:22.998Z,14.20
2024-01-25T16:18:49.637Z,16.95
2024-01-25T16:21:16.213Z,14.77
2024-01-25T16:23:42.577Z,14.02
2024-01-25T16:26:09.137Z,15.98
2024-01-25T16:28:35.905Z,15.35
2024-01-25T16:31:02.335Z,16.35
2024-01-25T16:33:28.947Z,15.73
2024-01-25T16:35:55.432Z,15.90
2024-01-25T16:38:21.862Z,17.30
2024-01-25T16:40:48.299Z,16.50
2024-01-25T16:43:16.434Z,15.82
2024-01-25T16:45:42.982Z,16.58
2024-01-25T16:48:09.465Z,15.65
2024-01-25T16:50:36.050Z,16.50
2024-01-25T16:53:03.089Z,17.00
2024-01-25T16:55:29.560Z,17.08
2024-01-25T16:57:56.028Z,16.15
2024-01-25T17:00:24.007Z,15.38
2024-01-25T17:02:51.838Z,17.30
2024-01-25T17:05:18.287Z,13.75
2024-01-25T17:07:44.750Z,16.60
2024-01-25T17:10:11.203Z,16.20
2024-01-25T17:12:37.657Z,17.27
2024-01-25T17:15:04.379Z,17.83
2024-01-25T17:17:30.811Z,18.63
2024-01-25T17:19:58.727Z,17.35
2024-01-25T17:22:26.687Z,18.63
2024-01-25T17:24:53.121Z,16.77
2024-01-25T17:27:19.654Z,18.23
2024-01-25T17:29:46.125Z,17.58
2024-01-25T17:32:12.528Z,16.63
2024-01-25T17:34:39.095Z,17.77
2024-01-25T17:37:05.573Z,19.90
2024-01-25T17:39:32.037Z,18.10
2024-01-25T17:41:58.470Z,20.05
2024-01-25T17:44:24.945Z,18.33
2024-01-25T17:46:51.469Z,21.67
2024-01-25T17:49:17.998Z,20.73
2024-01-25T17:51:44.537Z,20.75
2024-01-25T17:54:11.373Z,21.35
2024-01-25T17:56:38.769Z,22.10
2024-01-25T17:59:06.674Z,21.55
2024-01-25T18:01:33.163Z,21.20
2024-01-25T18:03:59.805Z,20.77
2024-01-25T18:06:26.287Z,19.25
2024-01-25T18:08:52.755Z,21.23
2024-01-25T18:11:19.286Z,21.05
2024-01-25T18:13:49.046Z,20.38
2024-01-25T18:16:15.612Z,20.60
2024-01-25T18:18:42.233Z,21.90
2024-01-25T18:21:09.557Z,20.92
2024-01-25T18:23:37.254Z,21.77
2024-01-25T18:26:03.734Z,21.15
2024-01-25T18:28:30.196Z,20.70
2024-01-25T18:30:57.997Z,23.95
2024-01-25T18:33:24.709Z,22.27
2024-01-25T18:35:51.261Z,23.05
2024-01-25T18:38:18.133Z,21.02
2024-01-25T18:40:44.623Z,21.77
2024-01-25T18:43:11.106Z,21.08
2024-01-25T18:45:37.560Z,23.05
2024-01-25T18:48:04.670Z,23.58
2024-01-25T18:50:33.117Z,23.70
2024-01-25T18:52:59.642Z,22.85
2024-01-25T18:55:26.282Z,22.38
2024-01-25T18:57:52.894Z,22.75
2024-01-25T19:00:19.602Z,23.27
2024-01-25T19:02:46.349Z,24.00
2024-01-25T19:05:13.197Z,24.65
2024-01-25T19:07:40.401Z,24.50
2024-01-25T19:10:07.235Z,23.92
2024-01-25T19:12:33.878Z,25.02
2024-01-25T19:15:04.503Z,26.48
2024-01-25T19:17:30.925Z,26.15
2024-01-25T19:19:57.518Z,24.02
2024-01-25T19:22:23.982Z,24.17
2024-01-25T19:24:50.447Z,23.27
2024-01-25T19:27:17.138Z,24.77
2024-01-25T19:29:43.667Z,22.95
2024-01-25T19:32:10.110Z,23.60
2024-01-25T19:34:36.733Z,24.52
2024-01-25T19:37:03.473Z,21.42
2024-01-25T19:39:30.016Z,23.00
2024-01-25T19:41:56.477Z,22.50
2024-01-25T19:44:22.933Z,22.60
2024-01-25T19:46:49.296Z,21.23
2024-01-25T19:49:15.926Z,23.60
2024-01-25T19:51:42.597Z,24.60
2024-01-25T19:54:09.063Z,24.27
2024-01-25T19:56:35.470Z,23.48
2024-01-25T19:59:02.475Z,23.00
2024-01-25T20:01:29.717Z,26.23
2024-01-25T20:03:57.686Z,24.30
2024-01-25T20:06:26.986Z,24.27
2024-01-25T20:08:53.496Z,24.98
2024-01-25T20:11:19.969Z,25.00
2024-01-25T20:13:46.494Z,25.30
2024-01-25T20:16:13.027Z,25.95
2024-01-25T20:18:39.858Z,24.92
2024-01-25T20:21:06.525Z,23.80
2024-01-25T20:23:32.976Z,26.02
2024-01-25T20:25:59.426Z,26.05
2024-01-25T20:28:26.140Z,24.85
2024-01-25T20:30:52.709Z,25.63
2024-01-25T20:33:19.538Z,25.05
2024-01-25T20:35:46.185Z,24.08
2024-01-25T20:38:12.720Z,24.48
2024-01-25T20:40:39.191Z,23.42
2024-01-25T20:43:05.719Z,24.10
2024-01-25T20:45:32.238Z,24.67
2024-01-25T20:47:59.350Z,25.02
2024-01-25T20:50:34.341Z,25.90
2024-01-25T20:53:04.892Z,25.98
2024-01-25T20:55:31.353Z,25.50
2024-01-25T20:57:57.883Z,24.85
2024-01-25T21:00:24.431Z,25.23
2024-01-25T21:02:51.278Z,25.13
2024-01-25T21:05:17.922Z,24.70
2024-01-25T21:07:44.476Z,25.33
2024-01-25T21:10:11.155Z,25.92
2024-01-25T21:12:37.834Z,26.75
2024-01-25T21:15:05.016Z,25.23
2024-01-25T21:17:31.465Z,25.85
2024-01-25T21:19:58.209Z,23.52
2024-01-25T21:22:24.999Z,23.45
2024-01-25T21:24:54.407Z,23.70
2024-01-25T21:27:20.977Z,24.20
2024-01-25T21:29:47.385Z,24.65
2024-01-25T21:32:14.375Z,21.25
2024-01-25T21:34:41.132Z,23.48
2024-01-25T21:37:07.699Z,25.50
2024-01-25T21:39:34.244Z,23.05
2024-01-25T21:42:00.684Z,25.17
2024-01-25T21:44:27.311Z,24.10
2024-01-25T21:46:53.837Z,23.33
2024-01-25T21:49:20.453Z,24.50
2024-01-25T21:51:47.092Z,25.40
2024-01-25T21:54:13.999Z,25.40
2024-01-25T21:56:40.633Z,26.40
2024-01-25T21:59:07.818Z,24.92
2024-01-25T22:01:34.689Z,24.63
2024-01-25T22:04:01.653Z,24.45
2024-01-25T22:06:28.222Z,24.23
2024-01-25T22:08:54.730Z,23.95
2024-01-25T22:11:21.387Z,23.63
2024-01-25T22:13:54.251Z,24.83
2024-01-25T22:16:22.241Z,24.63
2024-01-25T22:18:48.776Z,26.45
2024-01-25T22:21:18.593Z,27.02
2024-01-25T22:23:45.212Z,25.90
2024-01-25T22:26:12.353Z,24.17
2024-01-25T22:28:38.799Z,24.75
2024-01-25T22:31:08.278Z,24.08
2024-01-25T22:33:37.792Z,25.95
2024-01-25T22:36:04.985Z,25.20
2024-01-25T22:38:31.754Z,25.63
2024-01-25T22:40:58.421Z,22.70
2024-01-25T22:43:26.349Z,25.38
2024-01-25T22:45:53.331Z,24.50
2024-01-25T22:48:19.890Z,25.75
2024-01-25T22:50:46.340Z,27.00
2024-01-25T22:53:12.824Z,25.48
2024-01-25T22:55:39.232Z,25.08
2024-01-25T22:58:06.488Z,25.42
2024-01-25T23:00:34.211Z,27.38
2024-01-25T23:03:01.624Z,24.67
2024-01-25T23:05:28.160Z,24.67
2024-01-25T23:07:54.714Z,27.65
2024-01-25T23:10:21.346Z,25.90
2024-01-25T23:12:48.635Z,27.08
2024-01-25T23:15:15.411Z,26.20
2024-01-25T23:17:42.143Z,28.27
2024-01-25T23:20:09.179Z,25.92
2024-01-25T23:22:35.983Z,26.48
2024-01-25T23:25:02.780Z,23.02
2024-01-25T23:27:29.279Z,23.92
2024-01-25T23:29:55.743Z,23.38
2024-01-25T23:32:22.221Z,24.20
2024-01-25T23:34:49.164Z,22.52
2024-01-25T23:37:15.961Z,22.88
2024-01-25T23:39:43.343Z,23.42
2024-01-25T23:42:10.012Z,22.08
2024-01-25T23:44:36.473Z,21.58
2024-01-25T23:47:03.006Z,20.80
2024-01-25T23:49:29.908Z,21.80
2024-01-25T23:51:56.865Z,20.30
2024-01-25T23:54:23.487Z,21.27
2024-01-25T23:56:50.530Z,20.77
2024-01-25T23:59:16.939Z,20.38
